sensor_id;sensor_type;location;lat;lon;timestamp;P1;durP1;ratioP1;P2;durP2;ratioP2
19794;SDS011;10057;59.402;17.866;2022-08-20T00:00:45;19.85;;;11.05;;
19794;SDS011;10057;59.402;17.866;2022-08-20T00:03:15;20.10;;;10.85;;
19794;SDS011;10057;59.402;17.866;2022-08-20T00:05:46;17.63;;;10.65;;
19794;SDS011;10057;59.402;17.866;2022-08-20T00:08:21;17.08;;;11.48;;
19794;SDS011;10057;59.402;17.866;2022-08-20T00:10:49;17.48;;;10.32;;
19794;SDS011;10057;59.402;17.866;2022-08-20T00:13:31;17.42;;;10.90;;
19794;SDS011;10057;59.402;17.866;2022-08-20T00:16:07;20.83;;;10.93;;
19794;SDS011;10057;59.402;17.866;2022-08-20T00:18:35;21.55;;;11.00;;
19794;SDS011;10057;59.402;17.866;2022-08-20T00:21:04;17.67;;;10.35;;
19794;SDS011;10057;59.402;17.866;2022-08-20T00:23:37;17.67;;;10.98;;
19794;SDS011;10057;59.402;17.866;2022-08-20T00:26:06;17.23;;;10.60;;
19794;SDS011;10057;59.402;17.866;2022-08-20T00:28:33;16.35;;;10.68;;
19794;SDS011;10057;59.402;17.866;2022-08-20T00:31:02;16.80;;;10.55;;
19794;SDS011;10057;59.402;17.866;2022-08-20T00:33:30;19.38;;;10.50;;
19794;SDS011;10057;59.402;17.866;2022-08-20T00:35:57;19.65;;;10.48;;
19794;SDS011;10057;59.402;17.866;2022-08-20T00:38:32;16.45;;;10.48;;
19794;SDS011;10057;59.402;17.866;2022-08-20T00:40:59;21.55;;;10.77;;
19794;SDS011;10057;59.402;17.866;2022-08-20T00:46:09;16.33;;;9.93;;
19794;SDS011;10057;59.402;17.866;2022-08-20T00:48:43;18.52;;;10.43;;
19794;SDS011;10057;59.402;17.866;2022-08-20T00:51:16;24.73;;;10.50;;
19794;SDS011;10057;59.402;17.866;2022-08-20T00:53:55;19.85;;;10.15;;
19794;SDS011;10057;59.402;17.866;2022-08-20T00:56:39;16.00;;;10.18;;
19794;SDS011;10057;59.402;17.866;2022-08-20T00:59:11;16.05;;;9.93;;
19794;SDS011;10057;59.402;17.866;2022-08-20T01:01:43;15.10;;;9.00;;
19794;SDS011;10057;59.402;17.866;2022-08-20T01:04:21;16.42;;;9.32;;
19794;SDS011;10057;59.402;17.866;2022-08-20T01:06:48;16.75;;;9.73;;
19794;SDS011;10057;59.402;17.866;2022-08-20T01:09:14;21.45;;;10.32;;
19794;SDS011;10057;59.402;17.866;2022-08-20T01:11:43;18.38;;;10.38;;
19794;SDS011;10057;59.402;17.866;2022-08-20T01:14:10;18.73;;;9.38;;
19794;SDS011;10057;59.402;17.866;2022-08-20T01:16:55;16.67;;;9.13;;
19794;SDS011;10057;59.402;17.866;2022-08-20T01:19:27;15.85;;;9.10;;
19794;SDS011;10057;59.402;17.866;2022-08-20T01:21:58;14.52;;;9.15;;
19794;SDS011;10057;59.402;17.866;2022-08-20T01:24:27;16.33;;;9.57;;
19794;SDS011;10057;59.402;17.866;2022-08-20T01:27:01;17.25;;;8.80;;
19794;SDS011;10057;59.402;17.866;2022-08-20T01:29:33;18.90;;;9.95;;
19794;SDS011;10057;59.402;17.866;2022-08-20T01:32:04;16.80;;;8.77;;
19794;SDS011;10057;59.402;17.866;2022-08-20T01:34:31;18.15;;;9.38;;
19794;SDS011;10057;59.402;17.866;2022-08-20T01:36:58;18.77;;;9.32;;
19794;SDS011;10057;59.402;17.866;2022-08-20T01:39:27;14.18;;;8.52;;
19794;SDS011;10057;59.402;17.866;2022-08-20T01:44:59;15.35;;;8.07;;
19794;SDS011;10057;59.402;17.866;2022-08-20T01:47:30;16.40;;;9.13;;
19794;SDS011;10057;59.402;17.866;2022-08-20T01:50:09;18.42;;;8.98;;
19794;SDS011;10057;59.402;17.866;2022-08-20T01:55:31;16.65;;;8.52;;
19794;SDS011;10057;59.402;17.866;2022-08-20T01:57:58;16.35;;;8.55;;
19794;SDS011;10057;59.402;17.866;2022-08-20T02:00:26;13.98;;;7.82;;
19794;SDS011;10057;59.402;17.866;2022-08-20T02:02:53;19.17;;;8.15;;
19794;SDS011;10057;59.402;17.866;2022-08-20T02:05:21;16.42;;;8.52;;
19794;SDS011;10057;59.402;17.866;2022-08-20T02:07:48;17.10;;;8.32;;
19794;SDS011;10057;59.402;17.866;2022-08-20T02:10:15;12.20;;;7.82;;
19794;SDS011;10057;59.402;17.866;2022-08-20T02:12:43;13.68;;;7.70;;
19794;SDS011;10057;59.402;17.866;2022-08-20T02:15:10;17.13;;;7.63;;
19794;SDS011;10057;59.402;17.866;2022-08-20T02:17:37;15.02;;;7.70;;
19794;SDS011;10057;59.402;17.866;2022-08-20T02:20:08;11.35;;;6.70;;
19794;SDS011;10057;59.402;17.866;2022-08-20T02:25:16;15.25;;;7.78;;
19794;SDS011;10057;59.402;17.866;2022-08-20T02:27:48;12.73;;;6.82;;
19794;SDS011;10057;59.402;17.866;2022-08-20T02:30:19;15.20;;;6.83;;
19794;SDS011;10057;59.402;17.866;2022-08-20T02:32:53;18.42;;;6.55;;
19794;SDS011;10057;59.402;17.866;2022-08-20T02:35:21;12.73;;;6.78;;
19794;SDS011;10057;59.402;17.866;2022-08-20T02:37:48;14.52;;;6.95;;
19794;SDS011;10057;59.402;17.866;2022-08-20T02:40:17;15.07;;;6.97;;
19794;SDS011;10057;59.402;17.866;2022-08-20T02:42:55;13.93;;;6.07;;
19794;SDS011;10057;59.402;17.866;2022-08-20T02:45:23;12.05;;;6.38;;
19794;SDS011;10057;59.402;17.866;2022-08-20T02:47:50;10.18;;;5.82;;
19794;SDS011;10057;59.402;17.866;2022-08-20T02:50:22;14.07;;;6.22;;
19794;SDS011;10057;59.402;17.866;2022-08-20T02:52:51;9.50;;;5.85;;
19794;SDS011;10057;59.402;17.866;2022-08-20T02:55:19;13.30;;;6.28;;
19794;SDS011;10057;59.402;17.866;2022-08-20T02:57:54;20.50;;;6.05;;
19794;SDS011;10057;59.402;17.866;2022-08-20T03:00:24;18.90;;;6.47;;
19794;SDS011;10057;59.402;17.866;2022-08-20T03:02:51;22.27;;;6.30;;
19794;SDS011;10057;59.402;17.866;2022-08-20T03:05:17;13.50;;;6.45;;
19794;SDS011;10057;59.402;17.866;2022-08-20T03:07:45;12.68;;;6.32;;
19794;SDS011;10057;59.402;17.866;2022-08-20T03:10:30;18.05;;;6.10;;
19794;SDS011;10057;59.402;17.866;2022-08-20T03:12:59;12.80;;;6.57;;
19794;SDS011;10057;59.402;17.866;2022-08-20T03:15:28;14.23;;;6.15;;
19794;SDS011;10057;59.402;17.866;2022-08-20T03:17:57;15.70;;;6.45;;
19794;SDS011;10057;59.402;17.866;2022-08-20T03:20:25;17.30;;;6.30;;
19794;SDS011;10057;59.402;17.866;2022-08-20T03:22:53;16.02;;;6.20;;
19794;SDS011;10057;59.402;17.866;2022-08-20T03:25:20;11.95;;;6.25;;
19794;SDS011;10057;59.402;17.866;2022-08-20T03:27:48;9.95;;;5.70;;
19794;SDS011;10057;59.402;17.866;2022-08-20T03:30:20;15.98;;;6.35;;
19794;SDS011;10057;59.402;17.866;2022-08-20T03:32:48;14.88;;;6.43;;
19794;SDS011;10057;59.402;17.866;2022-08-20T03:35:15;15.80;;;6.68;;
19794;SDS011;10057;59.402;17.866;2022-08-20T03:37:43;13.88;;;5.95;;
19794;SDS011;10057;59.402;17.866;2022-08-20T03:40:17;11.65;;;6.03;;
19794;SDS011;10057;59.402;17.866;2022-08-20T03:42:46;20.48;;;6.55;;
19794;SDS011;10057;59.402;17.866;2022-08-20T03:45:13;13.48;;;5.93;;
19794;SDS011;10057;59.402;17.866;2022-08-20T03:47:45;16.85;;;5.95;;
19794;SDS011;10057;59.402;17.866;2022-08-20T03:50:13;16.73;;;6.32;;
19794;SDS011;10057;59.402;17.866;2022-08-20T03:52:52;10.52;;;5.97;;
19794;SDS011;10057;59.402;17.866;2022-08-20T03:55:20;17.00;;;6.30;;
19794;SDS011;10057;59.402;17.866;2022-08-20T03:57:49;15.77;;;6.47;;
19794;SDS011;10057;59.402;17.866;2022-08-20T04:00:26;20.67;;;6.45;;
19794;SDS011;10057;59.402;17.866;2022-08-20T04:03:04;23.15;;;6.60;;
19794;SDS011;10057;59.402;17.866;2022-08-20T04:05:34;12.95;;;6.28;;
19794;SDS011;10057;59.402;17.866;2022-08-20T04:08:10;13.43;;;6.72;;
19794;SDS011;10057;59.402;17.866;2022-08-20T04:10:45;15.73;;;6.18;;
19794;SDS011;10057;59.402;17.866;2022-08-20T04:13:14;19.83;;;7.38;;
19794;SDS011;10057;59.402;17.866;2022-08-20T04:15:43;20.85;;;6.75;;
19794;SDS011;10057;59.402;17.866;2022-08-20T04:18:11;13.38;;;6.75;;
19794;SDS011;10057;59.402;17.866;2022-08-20T04:20:41;19.33;;;6.97;;
19794;SDS011;10057;59.402;17.866;2022-08-20T04:23:08;16.90;;;7.07;;
19794;SDS011;10057;59.402;17.866;2022-08-20T04:25:35;20.23;;;6.97;;
19794;SDS011;10057;59.402;17.866;2022-08-20T04:28:13;14.43;;;7.68;;
19794;SDS011;10057;59.402;17.866;2022-08-20T04:30:42;19.88;;;7.13;;
19794;SDS011;10057;59.402;17.866;2022-08-20T04:33:18;14.23;;;7.00;;
19794;SDS011;10057;59.402;17.866;2022-08-20T04:35:59;13.43;;;6.80;;
19794;SDS011;10057;59.402;17.866;2022-08-20T04:38:28;15.23;;;7.20;;
19794;SDS011;10057;59.402;17.866;2022-08-20T04:41:15;15.50;;;7.45;;
19794;SDS011;10057;59.402;17.866;2022-08-20T04:43:49;21.17;;;7.43;;
19794;SDS011;10057;59.402;17.866;2022-08-20T04:46:22;15.13;;;7.93;;
19794;SDS011;10057;59.402;17.866;2022-08-20T04:48:53;20.17;;;8.20;;
19794;SDS011;10057;59.402;17.866;2022-08-20T04:51:21;16.08;;;7.47;;
19794;SDS011;10057;59.402;17.866;2022-08-20T04:53:53;24.83;;;8.52;;
19794;SDS011;10057;59.402;17.866;2022-08-20T04:56:25;15.93;;;7.95;;
19794;SDS011;10057;59.402;17.866;2022-08-20T04:58:54;15.70;;;8.40;;
19794;SDS011;10057;59.402;17.866;2022-08-20T05:01:24;16.27;;;7.68;;
19794;SDS011;10057;59.402;17.866;2022-08-20T05:03:51;19.85;;;7.60;;
19794;SDS011;10057;59.402;17.866;2022-08-20T05:06:21;14.75;;;7.68;;
19794;SDS011;10057;59.402;17.866;2022-08-20T05:08:51;21.98;;;7.68;;
19794;SDS011;10057;59.402;17.866;2022-08-20T05:11:19;15.93;;;7.77;;
19794;SDS011;10057;59.402;17.866;2022-08-20T05:14:01;19.63;;;7.47;;
19794;SDS011;10057;59.402;17.866;2022-08-20T05:16:33;16.27;;;7.43;;
19794;SDS011;10057;59.402;17.866;2022-08-20T05:19:03;19.25;;;7.30;;
19794;SDS011;10057;59.402;17.866;2022-08-20T05:21:34;13.80;;;6.93;;
19794;SDS011;10057;59.402;17.866;2022-08-20T05:24:00;14.87;;;7.30;;
19794;SDS011;10057;59.402;17.866;2022-08-20T05:26:31;10.57;;;6.72;;
19794;SDS011;10057;59.402;17.866;2022-08-20T05:28:58;15.23;;;6.90;;
19794;SDS011;10057;59.402;17.866;2022-08-20T05:31:28;17.13;;;7.67;;
19794;SDS011;10057;59.402;17.866;2022-08-20T05:33:59;20.33;;;7.40;;
19794;SDS011;10057;59.402;17.866;2022-08-20T05:36:29;17.97;;;7.20;;
19794;SDS011;10057;59.402;17.866;2022-08-20T05:38:55;15.60;;;7.40;;
19794;SDS011;10057;59.402;17.866;2022-08-20T05:41:22;17.43;;;7.90;;
19794;SDS011;10057;59.402;17.866;2022-08-20T05:43:57;15.03;;;7.90;;
19794;SDS011;10057;59.402;17.866;2022-08-20T05:46:30;14.83;;;7.13;;
19794;SDS011;10057;59.402;17.866;2022-08-20T05:48:58;17.20;;;7.60;;
19794;SDS011;10057;59.402;17.866;2022-08-20T05:51:26;14.07;;;7.03;;
19794;SDS011;10057;59.402;17.866;2022-08-20T05:53:53;18.70;;;7.87;;
19794;SDS011;10057;59.402;17.866;2022-08-20T05:56:24;16.13;;;7.53;;
19794;SDS011;10057;59.402;17.866;2022-08-20T05:58:52;19.03;;;8.30;;
19794;SDS011;10057;59.402;17.866;2022-08-20T06:01:19;14.83;;;8.07;;
19794;SDS011;10057;59.402;17.866;2022-08-20T06:03:46;13.70;;;7.90;;
19794;SDS011;10057;59.402;17.866;2022-08-20T06:06:32;17.07;;;8.13;;
19794;SDS011;10057;59.402;17.866;2022-08-20T06:09:12;18.57;;;8.53;;
19794;SDS011;10057;59.402;17.866;2022-08-20T06:11:41;17.17;;;8.90;;
19794;SDS011;10057;59.402;17.866;2022-08-20T06:14:07;17.53;;;8.53;;
19794;SDS011;10057;59.402;17.866;2022-08-20T06:16:34;13.70;;;7.90;;
19794;SDS011;10057;59.402;17.866;2022-08-20T06:19:03;13.30;;;8.10;;
19794;SDS011;10057;59.402;17.866;2022-08-20T06:21:30;14.80;;;7.70;;
19794;SDS011;10057;59.402;17.866;2022-08-20T06:23:57;12.90;;;7.07;;
19794;SDS011;10057;59.402;17.866;2022-08-20T06:26:26;16.33;;;7.57;;
19794;SDS011;10057;59.402;17.866;2022-08-20T06:28:56;12.33;;;8.37;;
19794;SDS011;10057;59.402;17.866;2022-08-20T06:31:26;14.33;;;7.40;;
19794;SDS011;10057;59.402;17.866;2022-08-20T06:33:57;15.70;;;7.80;;
19794;SDS011;10057;59.402;17.866;2022-08-20T06:36:23;13.60;;;7.63;;
19794;SDS011;10057;59.402;17.866;2022-08-20T06:38:50;14.43;;;7.90;;
19794;SDS011;10057;59.402;17.866;2022-08-20T06:41:17;16.03;;;8.53;;
19794;SDS011;10057;59.402;17.866;2022-08-20T06:43:44;15.07;;;8.07;;
19794;SDS011;10057;59.402;17.866;2022-08-20T06:46:11;14.20;;;8.40;;
19794;SDS011;10057;59.402;17.866;2022-08-20T06:48:38;17.67;;;8.40;;
19794;SDS011;10057;59.402;17.866;2022-08-20T06:51:05;17.87;;;8.27;;
19794;SDS011;10057;59.402;17.866;2022-08-20T06:53:32;14.47;;;8.13;;
19794;SDS011;10057;59.402;17.866;2022-08-20T06:55:58;15.23;;;8.33;;
19794;SDS011;10057;59.402;17.866;2022-08-20T06:58:25;17.40;;;8.40;;
19794;SDS011;10057;59.402;17.866;2022-08-20T07:01:03;19.53;;;8.10;;
19794;SDS011;10057;59.402;17.866;2022-08-20T07:03:35;19.13;;;8.83;;
19794;SDS011;10057;59.402;17.866;2022-08-20T07:06:03;15.30;;;8.10;;
19794;SDS011;10057;59.402;17.866;2022-08-20T07:08:31;17.00;;;8.10;;
19794;SDS011;10057;59.402;17.866;2022-08-20T07:10:58;18.10;;;8.37;;
19794;SDS011;10057;59.402;17.866;2022-08-20T07:13:25;14.03;;;8.30;;
19794;SDS011;10057;59.402;17.866;2022-08-20T07:15:52;16.37;;;8.30;;
19794;SDS011;10057;59.402;17.866;2022-08-20T07:18:19;22.03;;;8.90;;
19794;SDS011;10057;59.402;17.866;2022-08-20T07:20:54;17.97;;;8.87;;
19794;SDS011;10057;59.402;17.866;2022-08-20T07:23:23;18.23;;;8.57;;
19794;SDS011;10057;59.402;17.866;2022-08-20T07:25:51;17.33;;;8.67;;
19794;SDS011;10057;59.402;17.866;2022-08-20T07:28:20;19.63;;;9.10;;
19794;SDS011;10057;59.402;17.866;2022-08-20T07:30:49;17.77;;;8.27;;
19794;SDS011;10057;59.402;17.866;2022-08-20T07:33:39;17.67;;;8.97;;
19794;SDS011;10057;59.402;17.866;2022-08-20T07:36:07;17.97;;;8.57;;
19794;SDS011;10057;59.402;17.866;2022-08-20T07:38:34;16.93;;;8.90;;
19794;SDS011;10057;59.402;17.866;2022-08-20T07:41:03;13.83;;;7.97;;
19794;SDS011;10057;59.402;17.866;2022-08-20T07:43:31;19.77;;;8.60;;
19794;SDS011;10057;59.402;17.866;2022-08-20T07:45:59;20.23;;;9.27;;
19794;SDS011;10057;59.402;17.866;2022-08-20T07:48:28;17.63;;;8.67;;
19794;SDS011;10057;59.402;17.866;2022-08-20T07:50:58;21.60;;;9.33;;
19794;SDS011;10057;59.402;17.866;2022-08-20T07:53:26;19.00;;;8.70;;
19794;SDS011;10057;59.402;17.866;2022-08-20T07:55:57;19.07;;;8.60;;
19794;SDS011;10057;59.402;17.866;2022-08-20T07:58:24;16.23;;;8.63;;
19794;SDS011;10057;59.402;17.866;2022-08-20T08:00:58;19.93;;;9.20;;
19794;SDS011;10057;59.402;17.866;2022-08-20T08:03:25;14.10;;;8.33;;
19794;SDS011;10057;59.402;17.866;2022-08-20T08:06:14;25.33;;;8.60;;
19794;SDS011;10057;59.402;17.866;2022-08-20T08:08:55;22.83;;;10.00;;
19794;SDS011;10057;59.402;17.866;2022-08-20T08:11:37;18.80;;;9.65;;
19794;SDS011;10057;59.402;17.866;2022-08-20T08:14:12;19.80;;;9.17;;
19794;SDS011;10057;59.402;17.866;2022-08-20T08:16:40;19.70;;;8.70;;
19794;SDS011;10057;59.402;17.866;2022-08-20T08:19:10;19.23;;;8.73;;
19794;SDS011;10057;59.402;17.866;2022-08-20T08:21:40;18.67;;;9.00;;
19794;SDS011;10057;59.402;17.866;2022-08-20T08:24:07;17.00;;;9.67;;
19794;SDS011;10057;59.402;17.866;2022-08-20T08:26:33;26.37;;;9.43;;
19794;SDS011;10057;59.402;17.866;2022-08-20T08:29:00;21.03;;;9.30;;
19794;SDS011;10057;59.402;17.866;2022-08-20T08:31:27;23.77;;;8.67;;
19794;SDS011;10057;59.402;17.866;2022-08-20T08:33:54;19.73;;;8.90;;
19794;SDS011;10057;59.402;17.866;2022-08-20T08:36:21;29.33;;;10.10;;
19794;SDS011;10057;59.402;17.866;2022-08-20T08:38:47;22.40;;;10.23;;
19794;SDS011;10057;59.402;17.866;2022-08-20T08:41:16;18.87;;;9.40;;
19794;SDS011;10057;59.402;17.866;2022-08-20T08:43:46;21.63;;;10.17;;
19794;SDS011;10057;59.402;17.866;2022-08-20T08:46:19;22.53;;;10.53;;
19794;SDS011;10057;59.402;17.866;2022-08-20T08:48:51;30.63;;;11.20;;
19794;SDS011;10057;59.402;17.866;2022-08-20T08:51:36;21.53;;;10.67;;
19794;SDS011;10057;59.402;17.866;2022-08-20T08:54:15;29.60;;;12.37;;
19794;SDS011;10057;59.402;17.866;2022-08-20T08:56:46;21.87;;;11.53;;
19794;SDS011;10057;59.402;17.866;2022-08-20T08:59:16;25.03;;;11.13;;
19794;SDS011;10057;59.402;17.866;2022-08-20T09:01:45;28.17;;;12.53;;
19794;SDS011;10057;59.402;17.866;2022-08-20T09:04:22;22.47;;;11.43;;
19794;SDS011;10057;59.402;17.866;2022-08-20T09:07:00;25.03;;;11.87;;
19794;SDS011;10057;59.402;17.866;2022-08-20T09:09:30;24.37;;;11.47;;
19794;SDS011;10057;59.402;17.866;2022-08-20T09:12:05;29.30;;;10.93;;
19794;SDS011;10057;59.402;17.866;2022-08-20T09:14:35;24.27;;;12.60;;
19794;SDS011;10057;59.402;17.866;2022-08-20T09:17:02;25.27;;;13.37;;
19794;SDS011;10057;59.402;17.866;2022-08-20T09:19:29;29.87;;;13.33;;
19794;SDS011;10057;59.402;17.866;2022-08-20T09:21:57;26.03;;;12.57;;
19794;SDS011;10057;59.402;17.866;2022-08-20T09:24:24;24.73;;;13.00;;
19794;SDS011;10057;59.402;17.866;2022-08-20T09:26:51;31.03;;;12.77;;
19794;SDS011;10057;59.402;17.866;2022-08-20T09:29:17;29.40;;;12.50;;
19794;SDS011;10057;59.402;17.866;2022-08-20T09:31:44;26.60;;;12.87;;
19794;SDS011;10057;59.402;17.866;2022-08-20T09:34:11;31.30;;;13.27;;
19794;SDS011;10057;59.402;17.866;2022-08-20T09:36:38;36.03;;;13.80;;
19794;SDS011;10057;59.402;17.866;2022-08-20T09:39:05;24.07;;;12.97;;
19794;SDS011;10057;59.402;17.866;2022-08-20T09:41:31;26.63;;;12.97;;
19794;SDS011;10057;59.402;17.866;2022-08-20T09:43:59;27.20;;;14.33;;
19794;SDS011;10057;59.402;17.866;2022-08-20T09:46:27;27.43;;;13.77;;
19794;SDS011;10057;59.402;17.866;2022-08-20T09:48:54;31.53;;;13.37;;
19794;SDS011;10057;59.402;17.866;2022-08-20T09:51:20;24.07;;;12.90;;
19794;SDS011;10057;59.402;17.866;2022-08-20T09:53:48;29.47;;;13.13;;
19794;SDS011;10057;59.402;17.866;2022-08-20T09:56:14;30.67;;;14.70;;
19794;SDS011;10057;59.402;17.866;2022-08-20T09:58:45;33.33;;;14.53;;
19794;SDS011;10057;59.402;17.866;2022-08-20T10:01:16;32.73;;;13.90;;
19794;SDS011;10057;59.402;17.866;2022-08-20T10:03:45;30.77;;;14.07;;
19794;SDS011;10057;59.402;17.866;2022-08-20T10:06:14;33.07;;;13.67;;
19794;SDS011;10057;59.402;17.866;2022-08-20T10:08:44;34.00;;;14.90;;
19794;SDS011;10057;59.402;17.866;2022-08-20T10:11:11;34.60;;;13.90;;
19794;SDS011;10057;59.402;17.866;2022-08-20T10:13:38;26.13;;;13.50;;
19794;SDS011;10057;59.402;17.866;2022-08-20T10:16:05;36.57;;;14.33;;
19794;SDS011;10057;59.402;17.866;2022-08-20T10:18:33;32.57;;;14.27;;
19794;SDS011;10057;59.402;17.866;2022-08-20T10:21:00;32.30;;;14.27;;
19794;SDS011;10057;59.402;17.866;2022-08-20T10:23:26;30.73;;;13.83;;
19794;SDS011;10057;59.402;17.866;2022-08-20T10:25:53;38.55;;;14.18;;
19794;SDS011;10057;59.402;17.866;2022-08-20T10:28:20;26.40;;;14.40;;
19794;SDS011;10057;59.402;17.866;2022-08-20T10:30:49;31.77;;;14.53;;
19794;SDS011;10057;59.402;17.866;2022-08-20T10:33:15;35.37;;;14.17;;
19794;SDS011;10057;59.402;17.866;2022-08-20T10:35:42;29.27;;;14.37;;
19794;SDS011;10057;59.402;17.866;2022-08-20T10:38:08;30.07;;;14.57;;
19794;SDS011;10057;59.402;17.866;2022-08-20T10:40:35;34.20;;;14.50;;
19794;SDS011;10057;59.402;17.866;2022-08-20T10:43:02;28.67;;;14.07;;
19794;SDS011;10057;59.402;17.866;2022-08-20T10:45:29;32.00;;;15.23;;
19794;SDS011;10057;59.402;17.866;2022-08-20T10:47:57;32.22;;;14.40;;
19794;SDS011;10057;59.402;17.866;2022-08-20T10:50:25;32.83;;;15.20;;
19794;SDS011;10057;59.402;17.866;2022-08-20T10:52:56;31.87;;;14.57;;
19794;SDS011;10057;59.402;17.866;2022-08-20T10:55:23;34.53;;;15.02;;
19794;SDS011;10057;59.402;17.866;2022-08-20T10:57:52;37.65;;;14.93;;
19794;SDS011;10057;59.402;17.866;2022-08-20T11:00:19;36.58;;;16.45;;
19794;SDS011;10057;59.402;17.866;2022-08-20T11:02:46;32.22;;;15.55;;
19794;SDS011;10057;59.402;17.866;2022-08-20T11:05:18;36.30;;;15.55;;
19794;SDS011;10057;59.402;17.866;2022-08-20T11:07:45;35.63;;;15.50;;
19794;SDS011;10057;59.402;17.866;2022-08-20T11:10:21;35.40;;;14.98;;
19794;SDS011;10057;59.402;17.866;2022-08-20T11:12:50;31.38;;;16.45;;
19794;SDS011;10057;59.402;17.866;2022-08-20T11:15:17;35.97;;;15.68;;
19794;SDS011;10057;59.402;17.866;2022-08-20T11:17:44;37.25;;;16.35;;
19794;SDS011;10057;59.402;17.866;2022-08-20T11:20:14;37.92;;;16.58;;
19794;SDS011;10057;59.402;17.866;2022-08-20T11:22:43;40.88;;;16.92;;
19794;SDS011;10057;59.402;17.866;2022-08-20T11:25:09;26.00;;;15.40;;
19794;SDS011;10057;59.402;17.866;2022-08-20T11:27:40;35.13;;;17.52;;
19794;SDS011;10057;59.402;17.866;2022-08-20T11:30:11;36.85;;;18.05;;
19794;SDS011;10057;59.402;17.866;2022-08-20T11:32:39;47.45;;;16.45;;
19794;SDS011;10057;59.402;17.866;2022-08-20T11:35:09;36.33;;;17.00;;
19794;SDS011;10057;59.402;17.866;2022-08-20T11:37:56;34.78;;;18.05;;
19794;SDS011;10057;59.402;17.866;2022-08-20T11:40:24;41.72;;;18.27;;
19794;SDS011;10057;59.402;17.866;2022-08-20T11:42:52;39.67;;;18.48;;
19794;SDS011;10057;59.402;17.866;2022-08-20T11:45:38;37.83;;;18.70;;
19794;SDS011;10057;59.402;17.866;2022-08-20T11:48:05;38.53;;;18.40;;
19794;SDS011;10057;59.402;17.866;2022-08-20T11:50:31;40.13;;;18.90;;
19794;SDS011;10057;59.402;17.866;2022-08-20T11:52:58;45.28;;;18.88;;
19794;SDS011;10057;59.402;17.866;2022-08-20T11:55:29;34.97;;;18.23;;
19794;SDS011;10057;59.402;17.866;2022-08-20T11:57:58;43.50;;;18.85;;
19794;SDS011;10057;59.402;17.866;2022-08-20T12:00:26;35.90;;;18.60;;
19794;SDS011;10057;59.402;17.866;2022-08-20T12:02:58;36.78;;;18.35;;
19794;SDS011;10057;59.402;17.866;2022-08-20T12:05:26;42.28;;;19.38;;
19794;SDS011;10057;59.402;17.866;2022-08-20T12:07:55;40.42;;;18.70;;
19794;SDS011;10057;59.402;17.866;2022-08-20T12:10:27;44.38;;;19.35;;
19794;SDS011;10057;59.402;17.866;2022-08-20T12:12:57;42.63;;;19.42;;
19794;SDS011;10057;59.402;17.866;2022-08-20T12:15:30;44.47;;;19.52;;
19794;SDS011;10057;59.402;17.866;2022-08-20T12:17:57;41.38;;;20.23;;
19794;SDS011;10057;59.402;17.866;2022-08-20T12:20:24;38.35;;;19.85;;
19794;SDS011;10057;59.402;17.866;2022-08-20T12:22:51;37.95;;;18.75;;
19794;SDS011;10057;59.402;17.866;2022-08-20T12:25:19;38.53;;;19.75;;
19794;SDS011;10057;59.402;17.866;2022-08-20T12:27:46;46.20;;;19.70;;
19794;SDS011;10057;59.402;17.866;2022-08-20T12:30:14;41.33;;;20.15;;
19794;SDS011;10057;59.402;17.866;2022-08-20T12:32:46;40.50;;;19.50;;
19794;SDS011;10057;59.402;17.866;2022-08-20T12:35:14;42.72;;;20.20;;
19794;SDS011;10057;59.402;17.866;2022-08-20T12:37:42;44.17;;;19.05;;
19794;SDS011;10057;59.402;17.866;2022-08-20T12:40:14;36.65;;;18.92;;
19794;SDS011;10057;59.402;17.866;2022-08-20T12:42:57;39.03;;;19.23;;
19794;SDS011;10057;59.402;17.866;2022-08-20T12:45:25;43.53;;;19.75;;
19794;SDS011;10057;59.402;17.866;2022-08-20T12:47:51;38.28;;;19.25;;
19794;SDS011;10057;59.402;17.866;2022-08-20T12:50:19;48.05;;;18.92;;
19794;SDS011;10057;59.402;17.866;2022-08-20T12:52:48;37.08;;;18.00;;
19794;SDS011;10057;59.402;17.866;2022-08-20T12:55:15;38.42;;;18.48;;
19794;SDS011;10057;59.402;17.866;2022-08-20T12:57:48;34.75;;;18.38;;
19794;SDS011;10057;59.402;17.866;2022-08-20T13:00:18;37.13;;;18.13;;
19794;SDS011;10057;59.402;17.866;2022-08-20T13:02:52;34.88;;;17.55;;
19794;SDS011;10057;59.402;17.866;2022-08-20T13:05:20;37.47;;;17.40;;
19794;SDS011;10057;59.402;17.866;2022-08-20T13:07:48;36.20;;;17.90;;
19794;SDS011;10057;59.402;17.866;2022-08-20T13:10:17;33.30;;;16.95;;
19794;SDS011;10057;59.402;17.866;2022-08-20T13:12:47;32.80;;;16.63;;
19794;SDS011;10057;59.402;17.866;2022-08-20T13:15:14;35.10;;;15.43;;
19794;SDS011;10057;59.402;17.866;2022-08-20T13:17:42;31.27;;;14.73;;
19794;SDS011;10057;59.402;17.866;2022-08-20T13:20:10;31.52;;;14.50;;
19794;SDS011;10057;59.402;17.866;2022-08-20T13:22:40;28.77;;;13.68;;
19794;SDS011;10057;59.402;17.866;2022-08-20T13:25:07;31.55;;;14.18;;
19794;SDS011;10057;59.402;17.866;2022-08-20T13:27:34;28.58;;;13.75;;
19794;SDS011;10057;59.402;17.866;2022-08-20T13:30:06;27.77;;;12.63;;
19794;SDS011;10057;59.402;17.866;2022-08-20T13:32:35;23.70;;;12.50;;
19794;SDS011;10057;59.402;17.866;2022-08-20T13:35:02;26.05;;;11.93;;
19794;SDS011;10057;59.402;17.866;2022-08-20T13:37:29;25.40;;;13.07;;
19794;SDS011;10057;59.402;17.866;2022-08-20T13:39:57;29.75;;;12.90;;
19794;SDS011;10057;59.402;17.866;2022-08-20T13:42:24;23.10;;;12.30;;
19794;SDS011;10057;59.402;17.866;2022-08-20T13:44:52;20.95;;;12.35;;
19794;SDS011;10057;59.402;17.866;2022-08-20T13:47:24;27.98;;;13.05;;
19794;SDS011;10057;59.402;17.866;2022-08-20T13:49:57;22.48;;;12.55;;
19794;SDS011;10057;59.402;17.866;2022-08-20T13:52:25;27.77;;;12.50;;
19794;SDS011;10057;59.402;17.866;2022-08-20T13:54:57;24.20;;;12.68;;
19794;SDS011;10057;59.402;17.866;2022-08-20T13:57:24;22.52;;;12.23;;
19794;SDS011;10057;59.402;17.866;2022-08-20T13:59:53;22.50;;;12.25;;
19794;SDS011;10057;59.402;17.866;2022-08-20T14:02:21;26.73;;;12.15;;
19794;SDS011;10057;59.402;17.866;2022-08-20T14:04:49;25.88;;;12.05;;
19794;SDS011;10057;59.402;17.866;2022-08-20T14:07:18;23.40;;;11.35;;
19794;SDS011;10057;59.402;17.866;2022-08-20T14:09:48;21.70;;;11.98;;
19794;SDS011;10057;59.402;17.866;2022-08-20T14:12:19;20.33;;;12.38;;
19794;SDS011;10057;59.402;17.866;2022-08-20T14:14:48;22.73;;;12.65;;
19794;SDS011;10057;59.402;17.866;2022-08-20T14:19:51;21.13;;;10.52;;
19794;SDS011;10057;59.402;17.866;2022-08-20T14:22:26;18.77;;;10.90;;
19794;SDS011;10057;59.402;17.866;2022-08-20T14:24:53;18.67;;;9.48;;
19794;SDS011;10057;59.402;17.866;2022-08-20T14:27:21;17.13;;;9.23;;
19794;SDS011;10057;59.402;17.866;2022-08-20T14:29:56;14.75;;;8.02;;
19794;SDS011;10057;59.402;17.866;2022-08-20T14:32:24;12.52;;;7.10;;
19794;SDS011;10057;59.402;17.866;2022-08-20T14:34:54;10.30;;;6.05;;
19794;SDS011;10057;59.402;17.866;2022-08-20T14:37:26;11.60;;;6.47;;
19794;SDS011;10057;59.402;17.866;2022-08-20T14:39:55;7.82;;;5.72;;
19794;SDS011;10057;59.402;17.866;2022-08-20T14:42:24;11.75;;;6.25;;
19794;SDS011;10057;59.402;17.866;2022-08-20T14:44:56;9.20;;;5.93;;